Aeroporto :
LOGIN :

Iscrizione | Disclaimer

   EN    FR    IT 

 










Sommario :    VFR   VFR Marginale   IFR   IFR Intensivo   IFR Molto Intensivo
Visibilità : 
Base nubi : 
>= 8 km
>= 3000ft
5 / 8 km
1000 / 3000 ft
1500m / 5 km
500 / 1000 ft
800 / 1500m
200 / 500 ft
< 800m
< 200 ft
Simboli :   Temporali  Nebbia  Neve Forte  Precipitazioni Forti  Vento > 20 kt
SIGMETs :   Varie  Temporali  Ghiacco  Turbolenza  Onda orograficha  Ceneri Vulcaniche






- Altitudine del aeroporto : 124 ft
- Codice IATA : NHT


EGWU - RAF Northolt

ULTIMO METAR :
  • 281820Z 04015KT 9999 FEW032 BKN045 08/M00 Q1031 NOSIG RMK BLU BLU

METARs OBSOLETI :
  • 281750Z 05016KT 9999 FEW035 SCT042 09/M01 Q1031 NOSIG RMK BLU BLU
  • 281720Z 04021G31KT 9999 FEW038 BKN048 09/M01 Q1030 NOSIG RMK BLU BLU
  • 281650Z 05017KT 9999 FEW038 BKN045 10/M00 Q1030 NOSIG RMK BLU BLU
  • 281620Z 04018G28KT 9999 FEW038 BKN042 10/00 Q1030 NOSIG RMK BLU BLU
  • 281550Z 05018KT 9999 FEW038 BKN042 10/01 Q1029 NOSIG RMK BLU BLU

TAF TAF EGWU
Valido dal 28 a 18 ore il 29 a 12 ore UTC


281633Z 2818/2912 05018G28KT 9999 BKN040
BECMG 2820/2823 02015KT
PROB40
TEMPO 2821/2908 -SHRA SCT022
PROB30
TEMPO 2902/2908 04018G28KT 7000 -SHRASN
BECMG 2908/2910 01020G30KT
PROB40
TEMPO 2908/2912 7000 SHRA SCT020 BKN040



MetMap, La meteo Aeronautica in un colpo d'occhio ! - Copyright ORBIFLY Dicembre 2007 - Disclaimer

ORBIFLY MET'MAP TEAM :

Programmazione e sviluppo : Alexandra Zaïnal
Concezione : Baudouin d'Aumeries
Aiuto per la programmazione : Marc-Olivier Méhu
Supporto tecnico e logistico : Manuel Goepfert
Aiuto per la traduzione : Arnaldo La Scala

Contatto : metmap@orbifly.com




FONTI E CREDITI :

   NOAA